Time;durP1;ratioP1;P1;durP2;ratioP2;P2;SDS_P1;SDS_P2;PMS_P1;PMS_P2;Temp;Humidity;BMP_temperature;BMP_pressure;BME280_temperature;BME280_humidity;BME280_pressure;Samples;Min_cycle;Max_cycle;Signal;HPM_P1;HPM_P2
2023/07/26 00:06:34;;;;;;;1.33;0.93;;;;;;;20.95;69.81;100683.34;21079836;28;20044;-67
2023/07/26 00:16:36;;;;;;;1.25;1.15;;;;;;;20.96;69.62;100690.44;21067460;28;20059;-67
2023/07/26 00:26:38;;;;;;;0.90;0.82;;;;;;;20.94;69.62;100692.47;21078859;28;20048;-67
2023/07/26 00:36:40;;;;;;;2.50;1.50;;;;;;;20.92;69.58;100699.91;21078120;28;20048;-67
2023/07/26 00:46:41;;;;;;;0.80;0.80;;;;;;;20.92;69.62;100708.03;21075759;28;20131;-67
2023/07/26 00:56:43;;;;;;;1.42;0.88;;;;;;;20.89;69.55;100702.94;21058837;28;20046;-67
2023/07/26 01:06:53;;;;;;;1.25;0.90;;;;;;;20.89;69.62;100699.38;21075551;28;20119;-67
2023/07/26 01:16:55;;;;;;;1.27;0.98;;;;;;;20.88;69.55;100708.50;21058475;28;20044;-67
2023/07/26 01:26:57;;;;;;;0.80;0.70;;;;;;;20.86;70.06;100708.66;21073589;28;20130;-67
2023/07/26 01:37:00;;;;;;;1.20;0.82;;;;;;;20.86;70.71;100700.56;21071892;28;20097;-67
2023/07/26 01:47:01;;;;;;;1.42;0.70;;;;;;;20.86;70.77;100690.56;21071434;28;20048;-67
2023/07/26 01:57:04;;;;;;;2.88;1.30;;;;;;;20.81;70.93;100689.38;21072408;28;20046;-67
2023/07/26 02:07:06;;;;;;;1.85;0.85;;;;;;;20.83;70.97;100692.75;21070069;28;20098;-67
2023/07/26 02:17:08;;;;;;;0.95;0.80;;;;;;;20.80;70.98;100685.81;21058013;28;20048;-67
2023/07/26 02:27:09;;;;;;;0.93;0.70;;;;;;;20.78;70.75;100685.09;21069729;28;20381;-67
2023/07/26 02:37:11;;;;;;;1.23;0.73;;;;;;;20.77;70.74;100685.22;21066430;28;20056;-67
2023/07/26 02:47:13;;;;;;;1.08;0.70;;;;;;;20.75;70.52;100682.69;21068497;28;20047;-67
2023/07/26 02:57:15;;;;;;;1.02;0.90;;;;;;;20.75;71.13;100692.66;21049632;28;20123;-67
2023/07/26 03:07:16;;;;;;;1.75;0.98;;;;;;;20.71;70.70;100690.28;21049748;28;20110;-67
2023/07/26 03:17:18;;;;;;;1.27;0.77;;;;;;;20.69;69.77;100695.00;21034568;28;20040;-67
2023/07/26 03:27:24;;;;;;;1.08;0.95;;;;;;;20.69;70.33;100702.28;21049040;28;20040;-67
2023/07/26 03:37:26;;;;;;;1.50;0.80;;;;;;;20.66;69.96;100711.56;21079762;28;20423;-67
2023/07/26 03:47:27;;;;;;;0.90;0.75;;;;;;;20.65;70.57;100709.84;20986300;28;20052;-66
2023/07/26 03:57:29;;;;;;;1.48;0.77;;;;;;;20.65;70.00;100704.44;21025304;28;20045;-67
2023/07/26 04:07:31;;;;;;;2.00;0.90;;;;;;;20.65;70.73;100709.84;21018486;28;20051;-67
2023/07/26 04:17:33;;;;;;;0.95;0.80;;;;;;;20.61;70.21;100724.72;21035610;28;20066;-67
2023/07/26 04:27:34;;;;;;;1.13;0.80;;;;;;;20.63;70.28;100744.31;21030580;28;20132;-67
2023/07/26 04:37:36;;;;;;;1.50;0.98;;;;;;;20.62;69.96;100748.03;21014059;28;20102;-67
2023/07/26 04:47:38;;;;;;;1.00;0.90;;;;;;;20.62;70.12;100748.03;21010671;28;20047;-67
2023/07/26 04:57:40;;;;;;;3.25;0.93;;;;;;;20.63;70.84;100749.75;21029670;28;20040;-67
2023/07/26 05:07:41;;;;;;;3.83;0.90;;;;;;;20.63;71.03;100749.75;20982386;28;20078;-66
2023/07/26 05:17:44;;;;;;;2.10;0.88;;;;;;;20.65;72.30;100736.06;20981989;28;20048;-66
2023/07/26 05:27:46;;;;;;;2.63;0.98;;;;;;;20.67;74.13;100751.13;20963928;28;20049;-66
2023/07/26 05:37:49;;;;;;;2.67;0.98;;;;;;;20.70;74.30;100750.78;20965918;28;20091;-67
2023/07/26 05:47:50;;;;;;;2.65;0.90;;;;;;;20.71;75.20;100757.06;20961283;28;20037;-67
2023/07/26 05:57:52;;;;;;;1.48;1.13;;;;;;;20.70;75.66;100756.19;20993347;28;20068;-67
2023/07/26 06:07:54;;;;;;;3.63;1.00;;;;;;;20.69;75.24;100753.69;20971347;28;20394;-67
2023/07/26 06:17:56;;;;;;;1.30;1.00;;;;;;;20.74;76.97;100762.16;20904401;28;20684;-67
2023/07/26 06:27:57;;;;;;;2.25;0.70;;;;;;;20.73;76.94;100779.41;20903418;28;20051;-67
2023/07/26 06:37:59;;;;;;;1.02;0.77;;;;;;;20.71;77.08;100784.94;20901015;28;20052;-67
2023/07/26 06:48:01;;;;;;;1.83;0.80;;;;;;;20.69;76.58;100784.25;20902210;28;20053;-67
2023/07/26 06:58:03;;;;;;;1.67;1.10;;;;;;;20.63;76.29;100784.91;20901641;28;20084;-67
2023/07/26 07:08:04;;;;;;;2.80;0.80;;;;;;;20.66;76.90;100798.09;20994406;28;20090;-66
2023/07/26 07:18:06;;;;;;;1.55;0.90;;;;;;;20.67;77.12;100807.91;21048396;28;20148;-67
2023/07/26 07:28:13;;;;;;;1.10;0.73;;;;;;;20.65;77.00;100814.50;21067016;28;20131;-67
2023/07/26 07:38:15;;;;;;;0.98;0.80;;;;;;;20.64;77.27;100838.00;21064870;28;20312;-67
2023/07/26 07:48:17;;;;;;;2.58;1.17;;;;;;;20.62;76.84;100864.34;21001376;28;20161;-67
2023/07/26 07:58:20;;;;;;;1.83;1.02;;;;;;;20.62;77.22;100866.22;20978913;28;20129;-67
2023/07/26 08:08:22;;;;;;;1.98;0.88;;;;;;;20.60;77.13;100868.22;20989174;28;20561;-67
2023/07/26 08:18:24;;;;;;;3.92;1.15;;;;;;;20.59;77.75;100848.44;20946659;28;20647;-67
2023/07/26 08:28:26;;;;;;;2.47;1.00;;;;;;;20.60;77.63;100850.13;20914025;28;20053;-67
2023/07/26 08:38:28;;;;;;;3.35;0.80;;;;;;;;;;20911013;28;20080;-67
2023/07/26 08:48:32;;;;;;;2.58;0.82;;;;;;;20.63;77.35;100825.47;20909914;28;20057;-67
2023/07/26 08:58:33;;;;;;;1.80;1.07;;;;;;;20.64;77.07;100832.56;20909480;28;20053;-67
2023/07/26 09:08:35;;;;;;;2.88;0.93;;;;;;;20.65;77.25;100834.28;21060195;28;20048;-67
2023/07/26 09:18:55;;;;;;;3.97;1.20;;;;;;;20.76;78.67;100819.66;21075725;28;20079;-67
2023/07/26 09:28:56;;;;;;;0.98;0.88;;;;;;;20.84;79.96;100810.78;21074996;28;20047;-67
2023/07/26 09:38:58;;;;;;;2.25;1.00;;;;;;;20.89;81.12;100808.47;21073898;28;20128;-67
2023/07/26 09:49:02;;;;;;;1.90;0.70;;;;;;;20.93;81.37;100807.13;21073475;28;20153;-67
2023/07/26 09:59:08;;;;;;;1.48;0.90;;;;;;;20.96;79.24;100806.81;21068318;28;20039;-67
2023/07/26 10:09:13;;;;;;;1.35;0.90;;;;;;;20.94;77.83;100795.31;21065269;28;20393;-67
2023/07/26 10:19:16;;;;;;;1.67;0.90;;;;;;;20.97;78.49;100791.41;21069793;28;20047;-67
2023/07/26 10:29:18;;;;;;;1.08;0.88;;;;;;;20.99;78.55;100794.81;21070811;28;20143;-67
2023/07/26 10:39:32;;;;;;;1.20;0.88;;;;;;;21.04;78.85;100778.09;21051962;28;20051;-67
2023/07/26 10:49:34;;;;;;;1.02;0.90;;;;;;;21.09;78.89;100781.16;21069496;28;20055;-67
2023/07/26 11:00:04;;;;;;;2.25;1.10;;;;;;;21.13;80.67;100769.88;21052788;28;20036;-67
2023/07/26 11:10:25;;;;;;;1.08;0.98;;;;;;;21.17;80.64;100773.09;21067995;28;20052;-67
2023/07/26 11:20:27;;;;;;;1.55;1.00;;;;;;;21.16;78.80;100793.03;21065930;28;20052;-67
2023/07/26 11:30:29;;;;;;;1.98;1.08;;;;;;;21.13;78.58;100804.19;21065680;28;20097;-67
2023/07/26 11:40:37;;;;;;;1.00;0.77;;;;;;;21.10;77.69;100809.94;21066603;28;20622;-67
2023/07/26 11:50:40;;;;;;;2.33;0.98;;;;;;;21.12;80.63;100802.50;21069510;28;20051;-67
2023/07/26 12:00:46;;;;;;;0.73;0.70;;;;;;;21.14;81.30;100814.88;21071805;28;20055;-67
2023/07/26 12:10:49;;;;;;;1.10;0.80;;;;;;;21.16;79.72;100806.59;21081078;28;20036;-67
2023/07/26 12:20:56;;;;;;;1.55;1.00;;;;;;;21.19;80.72;100802.72;21080760;28;20056;-67
2023/07/26 12:31:06;;;;;;;2.05;0.90;;;;;;;21.19;80.66;100808.97;21079846;28;20047;-67
2023/07/26 12:41:08;;;;;;;1.23;0.93;;;;;;;21.19;80.03;100808.97;21079489;28;20044;-67
2023/07/26 12:51:09;;;;;;;1.98;0.90;;;;;;;21.20;80.30;100805.25;21077249;28;20467;-67
2023/07/26 13:01:11;;;;;;;1.17;1.08;;;;;;;21.21;80.39;100801.56;21063063;28;20048;-67
2023/07/26 13:11:13;;;;;;;0.70;0.70;;;;;;;21.20;78.94;100807.97;21076856;28;20582;-67
2023/07/26 13:21:15;;;;;;;1.35;0.90;;;;;;;21.15;76.14;100803.03;21074879;28;20040;-67
2023/07/26 13:31:16;;;;;;;1.52;1.00;;;;;;;21.15;75.94;100840.94;21075209;28;20411;-67
2023/07/26 13:41:18;;;;;;;1.65;1.08;;;;;;;21.14;75.92;100832.97;21074236;28;20078;-67
2023/07/26 13:51:21;;;;;;;1.23;0.90;;;;;;;21.14;76.34;100825.72;21073316;28;20056;-67
2023/07/26 14:01:23;;;;;;;1.30;1.05;;;;;;;21.06;76.42;100830.22;21040281;28;20522;-67
2023/07/26 14:11:25;;;;;;;1.33;0.90;;;;;;;21.11;75.31;100827.88;21071766;28;20047;-67
2023/07/26 14:21:27;;;;;;;1.10;0.98;;;;;;;21.09;74.10;100830.75;21069895;28;20056;-67
2023/07/26 14:31:28;;;;;;;1.38;1.08;;;;;;;21.09;73.76;100829.88;21069948;28;20040;-67
2023/07/26 14:41:30;;;;;;;1.50;1.20;;;;;;;21.07;74.17;100845.44;21069496;28;20059;-67
2023/07/26 14:51:32;;;;;;;1.55;1.35;;;;;;;21.06;74.05;100827.50;21065401;28;20542;-67
2023/07/26 15:01:34;;;;;;;1.27;1.10;;;;;;;21.06;74.37;100831.06;21058000;28;20048;-67
2023/07/26 15:11:36;;;;;;;1.98;1.10;;;;;;;21.04;73.22;100837.66;21068187;28;20581;-67
2023/07/26 15:21:37;;;;;;;1.25;1.10;;;;;;;21.05;72.84;100833.94;21065304;28;20044;-67
2023/07/26 15:31:39;;;;;;;5.75;1.48;;;;;;;21.12;74.23;100840.41;20990384;28;20103;-65
2023/07/26 15:41:40;;;;;;;4.18;1.40;;;;;;;21.20;76.67;100840.44;20975885;28;20094;-65
2023/07/26 15:51:45;;;;;;;;;;;;;;;21.32;76.64;100848.31;21030494;28;20044;-65
2023/07/26 16:01:47;;;;;;;3.00;1.35;;;;;;;21.39;77.38;100835.81;20991601;28;20007;-65
2023/07/26 16:11:49;;;;;;;3.15;1.67;;;;;;;21.37;78.64;100827.00;21008017;28;20094;-66
2023/07/26 16:21:54;;;;;;;4.78;1.88;;;;;;;21.43;78.93;100826.38;21014106;28;20068;-65
2023/07/26 16:31:56;;;;;;;6.32;2.47;;;;;;;21.48;79.52;100824.03;21006333;28;20086;-66
2023/07/26 16:41:58;;;;;;;6.47;2.33;;;;;;;21.53;80.84;100827.09;21027131;28;20066;-67
2023/07/26 16:51:59;;;;;;;6.28;2.33;;;;;;;21.56;81.92;100815.91;21021269;28;20044;-65
2023/07/26 17:02:01;;;;;;;4.25;1.90;;;;;;;21.61;83.60;100822.72;21012105;28;20902;-66
2023/07/26 17:12:03;;;;;;;3.53;2.17;;;;;;;21.61;83.15;100823.56;21027133;28;20074;-65
2023/07/26 17:22:05;;;;;;;2.95;1.77;;;;;;;21.62;81.14;100827.13;21022936;28;20424;-66
2023/07/26 17:32:07;;;;;;;3.17;1.95;;;;;;;21.61;80.69;100818.16;21007529;28;20048;-64
2023/07/26 17:42:09;;;;;;;6.40;1.77;;;;;;;21.59;79.87;100820.19;20999297;28;20533;-66
2023/07/26 17:52:11;;;;;;;4.35;1.77;;;;;;;21.60;80.82;100821.88;21012464;28;20522;-65
2023/07/26 18:02:13;;;;;;;3.42;1.90;;;;;;;21.56;80.04;100832.19;20982608;28;20069;-65
2023/07/26 18:12:14;;;;;;;4.18;2.20;;;;;;;21.53;79.92;100837.91;20955366;28;20045;-64
2023/07/26 18:22:16;;;;;;;4.45;1.92;;;;;;;21.51;79.61;100845.34;20984267;28;20041;-65
2023/07/26 18:32:18;;;;;;;4.15;1.60;;;;;;;21.49;79.50;100846.56;20976650;28;20044;-64
2023/07/26 18:42:20;;;;;;;5.47;1.80;;;;;;;21.46;79.43;100847.72;20983197;28;20045;-64
2023/07/26 18:52:21;;;;;;;8.00;1.88;;;;;;;21.46;79.30;100858.53;21007144;28;20052;-66
2023/07/26 19:02:23;;;;;;;3.92;1.90;;;;;;;21.42;78.81;100858.00;21006753;28;20512;-65
2023/07/26 19:12:25;;;;;;;3.15;1.80;;;;;;;21.43;80.95;100869.69;20993253;28;20422;-66
2023/07/26 19:22:26;;;;;;;3.58;1.77;;;;;;;21.43;80.15;100875.13;20971494;28;20056;-66
2023/07/26 19:32:28;;;;;;;3.50;1.73;;;;;;;21.42;80.88;100874.25;21001228;28;20499;-65
2023/07/26 19:42:30;;;;;;;2.75;1.73;;;;;;;21.29;80.64;100857.59;20959103;28;20044;-66
2023/07/26 19:52:31;;;;;;;2.90;1.65;;;;;;;21.40;79.69;100880.84;20960019;28;20102;-66
2023/07/26 20:02:33;;;;;;;2.03;1.50;;;;;;;21.37;78.69;100865.75;20978051;28;20385;-65
2023/07/26 20:12:35;;;;;;;2.53;1.55;;;;;;;21.34;78.10;100857.97;21005162;28;20074;-65
2023/07/26 20:22:37;;;;;;;3.03;1.90;;;;;;;21.32;77.52;100867.28;21064994;28;20052;-65
2023/07/26 20:32:38;;;;;;;5.03;1.98;;;;;;;21.28;76.88;100867.59;20988159;28;20053;-66
2023/07/26 20:42:40;;;;;;;3.65;1.70;;;;;;;21.26;76.38;100858.78;20993119;28;20469;-66
2023/07/26 20:52:42;;;;;;;4.20;1.77;;;;;;;21.24;75.34;100849.09;20984613;28;20056;-66
2023/07/26 21:02:43;;;;;;;3.88;2.00;;;;;;;21.18;75.02;100834.34;20930066;28;20493;-66
2023/07/26 21:12:45;;;;;;;2.35;1.67;;;;;;;21.15;74.63;100834.66;20935920;28;20493;-66
2023/07/26 21:22:48;;;;;;;2.38;2.00;;;;;;;21.12;74.29;100819.59;20968290;28;20056;-66
2023/07/26 21:32:50;;;;;;;2.28;1.75;;;;;;;21.10;74.06;100815.34;21044096;28;20082;-66
2023/07/26 21:42:52;;;;;;;3.13;1.80;;;;;;;21.09;74.25;100802.81;21039539;28;20044;-66
2023/07/26 21:52:53;;;;;;;3.40;2.20;;;;;;;21.08;74.23;100790.28;21060140;28;20400;-66
2023/07/26 22:02:55;;;;;;;4.10;1.70;;;;;;;21.04;73.50;100778.09;20988537;28;20098;-66
2023/07/26 22:12:57;;;;;;;2.70;1.92;;;;;;;21.02;73.14;100767.44;20988144;28;20573;-66
2023/07/26 22:22:58;;;;;;;2.28;1.67;;;;;;;20.99;72.89;100757.78;20986694;28;20408;-66
2023/07/26 22:33:00;;;;;;;6.43;2.80;;;;;;;21.00;76.40;100743.25;21035156;28;20500;-66
2023/07/26 22:43:02;;;;;;;3.88;2.35;;;;;;;20.97;76.53;100738.16;20966959;28;20375;-66
2023/07/26 22:53:04;;;;;;;4.85;2.28;;;;;;;20.95;76.26;100729.34;20984231;28;20135;-66
2023/07/26 23:03:06;;;;;;;3.35;2.00;;;;;;;20.94;75.78;100714.13;21014044;28;20043;-66
2023/07/26 23:13:07;;;;;;;3.22;2.10;;;;;;;20.95;76.09;100702.28;21035511;28;20040;-66
2023/07/26 23:23:09;;;;;;;3.45;1.90;;;;;;;20.94;75.81;100692.47;21039304;28;20619;-66
2023/07/26 23:33:11;;;;;;;2.80;2.00;;;;;;;20.90;74.11;100665.88;21052880;28;20088;-66
2023/07/26 23:43:13;;;;;;;2.40;1.80;;;;;;;20.86;73.72;100659.97;21019967;28;20430;-66
2023/07/26 23:53:15;;;;;;;3.15;1.70;;;;;;;20.85;73.43;100653.69;21056587;28;20053;-66
